This is the latest recevied weather packets stored in our database for station/object G6LTT-13. If no packets are shown the sender has not sent any weather packets the latest 10 day(s).
| Time | Temp. | Humidity | Pressure | Rain* | Wind** | Luminosity | Snow |
|---|---|---|---|---|---|---|---|
| 1787700107 | 17.78° C | 76% | 1041.1 hPa | 0 mm | - | - | - |
| 1787698307 | 17.78° C | 76% | 1041.2 hPa | 0 mm | - | - | - |
| 1787696507 | 18.33° C | 76% | 1041.1 hPa | 0 mm | - | - | - |
| 1787694707 | 18.33° C | 75% | 1041.2 hPa | 0 mm | - | - | - |
| 1787692907 | 18.33° C | 74% | 1041.3 hPa | 0 mm | - | - | - |
| 1787691107 | 18.89° C | 73% | 1041.1 hPa | 0 mm | - | - | - |
| 1787689307 | 18.89° C | 70% | 1041.2 hPa | 0 mm | - | - | - |
| 1787687507 | 19.44° C | 66% | 1041.2 hPa | 0 mm | - | - | - |
| 1787685707 | 20° C | 61% | 1041 hPa | 0 mm | - | - | - |
| 1787683907 | 21.11° C | 55% | 1040.7 hPa | 0 mm | - | - | - |
| 1787682107 | 22.22° C | 48% | 1040.5 hPa | 0 mm | - | - | - |
| 1787680307 | 23.33° C | 42% | 1040.2 hPa | 0 mm | - | - | - |
| 1787678509 | 23.33° C | 42% | 1040.1 hPa | 0 mm | - | - | - |
| 1787676708 | 24.44° C | 39% | 1040.3 hPa | 0 mm | - | - | - |
| 1787674907 | 25° C | 35% | 1040 hPa | 0 mm | - | - | - |
| 1787673107 | 25.56° C | 34% | 1040.1 hPa | 0 mm | - | - | - |
| 1787671307 | 25.56° C | 36% | 1040.1 hPa | 0 mm | - | - | - |
| 1787669507 | 25.56° C | 36% | 1040.5 hPa | 0 mm | - | - | - |
| 1787667707 | 26.11° C | 37% | 1040.4 hPa | 0 mm | - | - | - |
| 1787665907 | 26.11° C | 38% | 1040.8 hPa | 0 mm | - | - | - |
| 1787664107 | 25.56° C | 39% | 1040.8 hPa | 0 mm | - | - | - |
| 1787662307 | 25.56° C | 39% | 1040.8 hPa | 0 mm | - | - | - |
| 1787660509 | 25.56° C | 37% | 1040.5 hPa | 0 mm | - | - | - |
| 1787658707 | 25° C | 39% | 1041 hPa | 0 mm | - | - | - |
| 1787656907 | 24.44° C | 42% | 1041.2 hPa | 0 mm | - | - | - |
* Rain latest hour (hover to see other rain measurements)
** Current wind speed in m/s (hover to see current wind gust speed)